Time;durP1;ratioP1;P1;durP2;ratioP2;P2;SDS_P1;SDS_P2;PMS_P1;PMS_P2;Temp;Humidity;BMP_temperature;BMP_pressure;BME280_temperature;BME280_humidity;BME280_pressure;Samples;Min_cycle;Max_cycle;Signal;HPM_P1;HPM_P2
2021/09/25 00:00:59;;;;;;;;;22.50;21.00;;;;;;;;5062729;28;45331;-81
2021/09/25 00:03:24;;;;;;;;;22.33;18.00;;;;;;;;5081365;28;45299;-81
2021/09/25 00:05:49;;;;;;;;;20.33;18.67;;;;;;;;5076114;27;45816;-82
2021/09/25 00:08:15;;;;;;;;;25.00;23.67;;;;;;;;5081380;27;45462;-81
2021/09/25 00:10:41;;;;;;;;;25.00;20.00;;;;;;;;5081433;27;45291;-82
2021/09/25 00:13:07;;;;;;;;;24.50;22.25;;;;;;;;5081217;28;45280;-81
2021/09/25 00:15:32;;;;;;;;;25.75;22.00;;;;;;;;5063831;28;47278;-81
2021/09/25 00:17:58;;;;;;;;;21.00;19.00;;;;;;;;5081062;28;45525;-81
2021/09/25 00:20:25;;;;;;;;;23.25;22.75;;;;;;;;5089631;27;45380;-80
2021/09/25 00:22:50;;;;;;;;;21.25;21.00;;;;;;;;5093313;27;45288;-80
2021/09/25 00:25:15;;;;;;;;;18.25;16.25;;;;;;;;5084399;28;45479;-80
2021/09/25 00:27:41;;;;;;;;;24.33;17.67;;;;;;;;5083460;27;45491;-80
2021/09/25 00:30:08;;;;;;;;;19.00;17.50;;;;;;;;5086191;28;45417;-80
2021/09/25 00:32:33;;;;;;;;;21.00;19.75;;;;;;;;5067091;28;45627;-80
2021/09/25 00:34:59;;;;;;;;;23.67;18.67;;;;;;;;5082357;28;45477;-80
2021/09/25 00:37:24;;;;;;;;;22.50;18.50;;;;;;;;5090625;28;45329;-81
2021/09/25 00:39:49;;;;;;;;;23.67;19.67;;;;;;;;5101096;28;45359;-80
2021/09/25 00:42:14;;;;;;;;;24.67;20.00;;;;;;;;5098761;28;45297;-80
2021/09/25 00:44:40;;;;;;;;;19.67;17.00;;;;;;;;5080923;28;45307;-80
2021/09/25 00:47:05;;;;;;;;;21.50;20.00;;;;;;;;5080988;28;45273;-81
2021/09/25 00:49:30;;;;;;;;;24.00;21.25;;;;;;;;5081026;28;46398;-81
2021/09/25 00:51:55;;;;;;;;;21.33;19.00;;;;;;;;5069678;28;45435;-80
2021/09/25 00:54:21;;;;;;;;;19.00;19.00;;;;;;;;5079987;28;46332;-81
2021/09/25 00:56:47;;;;;;;;;22.50;19.50;;;;;;;;5062331;28;46319;-80
2021/09/25 00:59:13;;;;;;;;;20.25;16.50;;;;;;;;5062427;28;45485;-81
2021/09/25 01:01:40;;;;;;;;;18.75;17.00;;;;;;;;5080403;28;45540;-81
2021/09/25 01:04:05;;;;;;;;;20.25;17.50;;;;;;;;5080496;28;45479;-80
2021/09/25 01:06:31;;;;;;;;;23.00;18.75;;;;;;;;5080470;28;45467;-81
2021/09/25 01:08:56;;;;;;;;;16.50;15.25;;;;;;;;5079239;28;45271;-81
2021/09/25 01:11:22;;;;;;;;;19.75;18.25;;;;;;;;5062447;28;45436;-81
2021/09/25 01:13:47;;;;;;;;;22.75;18.25;;;;;;;;5080652;28;45418;-80
2021/09/25 01:16:13;;;;;;;;;19.50;19.25;;;;;;;;5082315;28;45434;-81
2021/09/25 01:18:38;;;;;;;;;23.67;21.67;;;;;;;;5084148;28;45398;-80
2021/09/25 01:21:07;;;;;;;;;19.00;19.00;;;;;;;;5081398;28;45454;-81
2021/09/25 01:23:33;;;;;;;;;22.50;19.25;;;;;;;;5080181;28;46513;-81
2021/09/25 01:25:59;;;;;;;;;23.00;20.75;;;;;;;;5080279;28;45330;-81
2021/09/25 01:28:24;;;;;;;;;24.75;19.50;;;;;;;;5080624;28;45473;-80
2021/09/25 01:30:50;;;;;;;;;22.50;21.25;;;;;;;;5080126;28;45421;-81
2021/09/25 01:33:15;;;;;;;;;23.75;20.25;;;;;;;;5080242;28;45373;-81
2021/09/25 01:35:40;;;;;;;;;21.33;19.67;;;;;;;;5080397;28;45376;-81
2021/09/25 01:38:05;;;;;;;;;23.50;19.00;;;;;;;;5080175;28;45449;-81
2021/09/25 01:40:31;;;;;;;;;24.00;19.67;;;;;;;;5080247;28;45334;-81
2021/09/25 01:42:56;;;;;;;;;23.33;21.67;;;;;;;;5079847;28;45463;-81
2021/09/25 01:45:21;;;;;;;;;22.50;19.25;;;;;;;;5079968;28;45422;-81
2021/09/25 01:47:46;;;;;;;;;30.33;22.00;;;;;;;;5061946;28;45529;-81
2021/09/25 01:50:13;;;;;;;;;26.00;22.50;;;;;;;;5061792;28;46075;-81
2021/09/25 01:52:39;;;;;;;;;26.25;21.00;;;;;;;;5060352;28;47260;-81
2021/09/25 01:55:05;;;;;;;;;24.00;19.25;;;;;;;;5079775;28;45527;-81
2021/09/25 01:57:30;;;;;;;;;24.25;21.00;;;;;;;;5077181;28;46342;-81
2021/09/25 01:59:55;;;;;;;;;20.67;20.00;;;;;;;;5079881;28;45462;-81
2021/09/25 02:02:20;;;;;;;;;20.75;18.75;;;;;;;;5079362;28;45930;-81
2021/09/25 02:04:47;;;;;;;;;18.33;17.00;;;;;;;;5079891;28;45307;-81
2021/09/25 02:07:12;;;;;;;;;18.75;17.75;;;;;;;;5079992;28;45458;-80
2021/09/25 02:09:37;;;;;;;;;24.75;19.50;;;;;;;;5079320;28;45570;-81
2021/09/25 02:12:03;;;;;;;;;19.33;19.00;;;;;;;;5079758;28;45443;-81
2021/09/25 02:14:28;;;;;;;;;23.25;19.75;;;;;;;;5079461;28;45379;-81
2021/09/25 02:16:53;;;;;;;;;22.00;21.33;;;;;;;;5079364;28;45395;-81
2021/09/25 02:19:19;;;;;;;;;20.00;18.67;;;;;;;;5079116;28;45229;-81
2021/09/25 02:21:44;;;;;;;;;23.33;17.67;;;;;;;;5075741;28;45655;-81
2021/09/25 02:24:09;;;;;;;;;25.67;20.67;;;;;;;;5068580;28;45437;-81
2021/09/25 02:26:34;;;;;;;;;23.75;19.25;;;;;;;;5079585;28;45326;-81
2021/09/25 02:29:00;;;;;;;;;32.25;28.00;;;;;;;;5079374;28;45363;-81
2021/09/25 02:31:25;;;;;;;;;40.33;33.00;;;;;;;;5079104;28;46116;-81
2021/09/25 02:33:50;;;;;;;;;44.00;34.00;;;;;;;;5077919;28;45436;-81
2021/09/25 02:36:15;;;;;;;;;40.67;33.67;;;;;;;;5079329;28;45548;-81
2021/09/25 02:38:41;;;;;;;;;44.00;33.00;;;;;;;;5060995;28;45736;-81
2021/09/25 02:41:06;;;;;;;;;50.50;40.00;;;;;;;;5078853;28;46340;-81
2021/09/25 02:43:31;;;;;;;;;48.00;38.00;;;;;;;;5079435;28;45420;-80
2021/09/25 02:45:57;;;;;;;;;49.33;38.33;;;;;;;;5079101;28;45362;-81
2021/09/25 02:48:22;;;;;;;;;47.75;37.50;;;;;;;;5079368;28;45478;-81
2021/09/25 02:50:48;;;;;;;;;37.00;32.00;;;;;;;;5079136;28;46740;-80
2021/09/25 02:53:13;;;;;;;;;53.00;43.50;;;;;;;;5060982;28;45380;-81
2021/09/25 02:55:38;;;;;;;;;49.50;39.75;;;;;;;;5079413;28;45609;-80
2021/09/25 02:58:04;;;;;;;;;56.75;42.75;;;;;;;;5079921;28;45668;-81
2021/09/25 03:00:29;;;;;;;;;55.33;43.00;;;;;;;;5079601;28;46321;-81
2021/09/25 03:02:54;;;;;;;;;48.75;39.50;;;;;;;;5061325;28;45337;-80
2021/09/25 03:05:20;;;;;;;;;53.00;41.25;;;;;;;;5079942;28;45267;-81
2021/09/25 03:07:46;;;;;;;;;51.25;39.25;;;;;;;;5079277;28;45225;-80
2021/09/25 03:10:11;;;;;;;;;53.50;41.00;;;;;;;;5079514;28;46296;-80
2021/09/25 03:12:36;;;;;;;;;48.25;37.25;;;;;;;;5079359;28;45306;-81
2021/09/25 03:15:04;;;;;;;;;48.00;36.50;;;;;;;;5080603;28;45292;-80
2021/09/25 03:17:29;;;;;;;;;43.50;34.75;;;;;;;;5063299;28;45593;-81
2021/09/25 03:19:54;;;;;;;;;45.25;35.00;;;;;;;;5080095;28;45596;-81
2021/09/25 03:22:19;;;;;;;;;45.67;37.00;;;;;;;;5081404;28;45546;-80
2021/09/25 03:24:45;;;;;;;;;40.75;33.25;;;;;;;;5064856;28;45444;-81
2021/09/25 03:27:10;;;;;;;;;40.75;31.00;;;;;;;;5063784;28;45663;-81
2021/09/25 03:29:36;;;;;;;;;41.00;33.00;;;;;;;;5080862;28;45674;-81
2021/09/25 03:32:01;;;;;;;;;38.00;32.25;;;;;;;;5079799;28;45389;-81
2021/09/25 03:34:26;;;;;;;;;37.25;30.50;;;;;;;;5083749;28;45726;-81
2021/09/25 03:36:52;;;;;;;;;47.67;33.00;;;;;;;;5083022;28;45410;-81
2021/09/25 03:39:17;;;;;;;;;26.00;24.33;;;;;;;;5086993;28;45485;-81
2021/09/25 03:41:45;;;;;;;;;36.67;30.67;;;;;;;;5088564;28;45378;-81
2021/09/25 03:44:11;;;;;;;;;37.25;32.25;;;;;;;;5072681;28;45371;-80
2021/09/25 03:46:37;;;;;;;;;31.50;28.25;;;;;;;;5101997;28;45326;-81
2021/09/25 03:49:02;;;;;;;;;34.25;28.25;;;;;;;;5094318;28;45233;-81
2021/09/25 03:51:27;;;;;;;;;23.00;18.50;;;;;;;;5087628;28;45279;-80
2021/09/25 03:53:53;;;;;;;;;38.75;31.75;;;;;;;;5088725;28;45202;-80
2021/09/25 03:56:18;;;;;;;;;31.25;26.50;;;;;;;;5087941;28;45604;-80
2021/09/25 03:58:44;;;;;;;;;36.00;30.25;;;;;;;;5084446;28;45644;-81
2021/09/25 04:01:11;;;;;;;;;37.25;30.50;;;;;;;;5082938;28;45181;-79
2021/09/25 04:03:36;;;;;;;;;37.25;30.75;;;;;;;;5085855;28;45379;-80
2021/09/25 04:06:02;;;;;;;;;31.33;29.33;;;;;;;;5086296;28;45426;-81
2021/09/25 04:08:28;;;;;;;;;31.75;24.25;;;;;;;;5086138;28;46144;-80
2021/09/25 04:10:53;;;;;;;;;35.75;28.50;;;;;;;;5084566;28;44759;-80
2021/09/25 04:13:19;;;;;;;;;32.50;28.00;;;;;;;;5084970;28;45725;-81
2021/09/25 04:15:44;;;;;;;;;32.75;27.25;;;;;;;;5084606;28;45272;-80
2021/09/25 04:18:09;;;;;;;;;32.33;25.33;;;;;;;;5086493;28;45473;-81
2021/09/25 04:20:35;;;;;;;;;31.33;28.00;;;;;;;;5069561;28;45810;-81
2021/09/25 04:23:00;;;;;;;;;36.25;27.00;;;;;;;;5087287;28;45317;-81
2021/09/25 04:25:30;;;;;;;;;40.33;30.33;;;;;;;;5086908;28;45592;-80
2021/09/25 04:27:55;;;;;;;;;32.50;27.25;;;;;;;;5086624;28;45433;-81
2021/09/25 04:30:21;;;;;;;;;35.00;27.75;;;;;;;;5086703;28;45440;-81
2021/09/25 04:32:46;;;;;;;;;24.00;21.67;;;;;;;;5067417;28;45341;-81
2021/09/25 04:35:11;;;;;;;;;31.50;25.25;;;;;;;;5069823;28;45501;-80
2021/09/25 04:37:37;;;;;;;;;30.33;25.00;;;;;;;;5084748;28;45602;-81
2021/09/25 04:40:02;;;;;;;;;26.67;23.00;;;;;;;;5083097;28;45371;-81
2021/09/25 04:42:28;;;;;;;;;30.75;25.00;;;;;;;;5086140;28;45386;-80
2021/09/25 04:44:53;;;;;;;;;28.67;24.67;;;;;;;;5087834;28;45382;-80
2021/09/25 04:47:18;;;;;;;;;32.00;23.33;;;;;;;;5069364;28;46647;-80
2021/09/25 04:49:43;;;;;;;;;31.00;28.00;;;;;;;;5087385;28;45402;-80
2021/09/25 04:52:09;;;;;;;;;30.25;26.25;;;;;;;;5085243;28;45407;-80
2021/09/25 04:54:34;;;;;;;;;36.25;24.50;;;;;;;;5083422;28;45320;-80
2021/09/25 04:56:59;;;;;;;;;32.00;28.00;;;;;;;;5082606;28;45387;-80
2021/09/25 04:59:24;;;;;;;;;34.00;28.75;;;;;;;;5083187;28;45157;-80
2021/09/25 05:01:50;;;;;;;;;37.50;31.50;;;;;;;;5067806;28;45441;-80
2021/09/25 05:04:17;;;;;;;;;33.00;30.00;;;;;;;;5083394;28;45221;-80
2021/09/25 05:06:42;;;;;;;;;37.00;29.25;;;;;;;;5065757;28;47671;-80
2021/09/25 05:09:07;;;;;;;;;31.25;28.00;;;;;;;;5086347;28;45378;-81
2021/09/25 05:11:33;;;;;;;;;39.67;31.33;;;;;;;;5083427;28;45350;-80
2021/09/25 05:13:58;;;;;;;;;38.00;32.75;;;;;;;;5066338;28;45544;-80
2021/09/25 05:16:23;;;;;;;;;40.67;30.00;;;;;;;;5066261;28;48184;-80
2021/09/25 05:18:48;;;;;;;;;39.67;30.33;;;;;;;;5065839;28;44834;-80
2021/09/25 05:21:14;;;;;;;;;38.00;33.00;;;;;;;;5083140;28;45319;-80
2021/09/25 05:23:39;;;;;;;;;36.00;32.00;;;;;;;;5084988;28;44775;-80
2021/09/25 05:26:05;;;;;;;;;38.00;30.67;;;;;;;;5087305;28;45480;-80
2021/09/25 05:28:30;;;;;;;;;38.25;32.50;;;;;;;;5064726;28;45416;-79
2021/09/25 05:30:55;;;;;;;;;36.00;30.67;;;;;;;;5066274;28;45537;-80
2021/09/25 05:33:21;;;;;;;;;37.50;32.00;;;;;;;;5083854;28;45382;-80
2021/09/25 05:35:46;;;;;;;;;44.75;33.50;;;;;;;;5083833;28;45429;-80
2021/09/25 05:38:11;;;;;;;;;40.75;33.00;;;;;;;;5084982;28;45457;-80
2021/09/25 05:40:37;;;;;;;;;34.00;31.50;;;;;;;;5084475;28;45373;-81
2021/09/25 05:43:02;;;;;;;;;37.00;32.50;;;;;;;;5063050;28;45388;-81
2021/09/25 05:45:27;;;;;;;;;45.00;33.25;;;;;;;;5080957;28;45415;-82
2021/09/25 05:47:53;;;;;;;;;39.00;32.00;;;;;;;;5080920;28;45401;-80
2021/09/25 05:50:19;;;;;;;;;39.25;32.25;;;;;;;;5081022;28;45417;-79
2021/09/25 05:52:44;;;;;;;;;43.00;33.50;;;;;;;;5062779;28;45624;-79
2021/09/25 05:55:10;;;;;;;;;41.33;32.00;;;;;;;;5080436;28;45403;-79
2021/09/25 05:57:35;;;;;;;;;39.75;32.50;;;;;;;;5082921;28;45257;-79
2021/09/25 06:00:00;;;;;;;;;40.50;34.00;;;;;;;;5082524;28;45158;-79
2021/09/25 06:02:26;;;;;;;;;41.00;33.00;;;;;;;;5089879;27;45476;-79
2021/09/25 06:04:51;;;;;;;;;42.50;36.50;;;;;;;;5092331;27;45460;-79
2021/09/25 06:07:18;;;;;;;;;44.67;35.00;;;;;;;;5086410;27;45417;-78
2021/09/25 06:09:43;;;;;;;;;37.25;31.75;;;;;;;;5089221;27;45368;-79
2021/09/25 06:12:08;;;;;;;;;39.25;33.00;;;;;;;;5089502;27;45154;-79
2021/09/25 06:14:34;;;;;;;;;40.00;33.25;;;;;;;;5083331;28;46391;-78
2021/09/25 06:17:00;;;;;;;;;40.50;34.00;;;;;;;;5085284;27;45509;-78
2021/09/25 06:19:25;;;;;;;;;40.25;32.75;;;;;;;;5082621;28;45453;-79
2021/09/25 06:21:50;;;;;;;;;37.75;33.50;;;;;;;;5087709;27;45429;-79
2021/09/25 06:24:16;;;;;;;;;39.33;31.00;;;;;;;;5081778;28;45407;-79
2021/09/25 06:26:41;;;;;;;;;35.33;32.00;;;;;;;;5088998;27;45366;-78
2021/09/25 06:29:06;;;;;;;;;35.67;31.00;;;;;;;;5088997;27;45334;-79
2021/09/25 06:31:32;;;;;;;;;42.33;34.33;;;;;;;;5070014;28;45398;-79
2021/09/25 06:33:57;;;;;;;;;36.75;33.00;;;;;;;;5081287;28;46342;-79
2021/09/25 06:36:22;;;;;;;;;40.00;35.50;;;;;;;;5081313;27;45469;-79
2021/09/25 06:38:47;;;;;;;;;38.00;33.33;;;;;;;;5089019;27;45611;-79
2021/09/25 06:41:13;;;;;;;;;41.67;32.33;;;;;;;;5088154;27;45333;-79
2021/09/25 06:43:38;;;;;;;;;39.00;33.00;;;;;;;;5096123;27;45372;-79
2021/09/25 06:46:03;;;;;;;;;44.67;36.00;;;;;;;;5069500;28;45441;-79
2021/09/25 06:48:28;;;;;;;;;35.33;31.67;;;;;;;;5084491;27;45481;-79
2021/09/25 06:50:54;;;;;;;;;46.00;36.00;;;;;;;;5075122;27;45436;-80
2021/09/25 06:53:19;;;;;;;;;47.50;34.50;;;;;;;;5083407;28;46438;-78
2021/09/25 06:55:44;;;;;;;;;43.00;35.33;;;;;;;;5064145;27;45477;-80
2021/09/25 06:58:09;;;;;;;;;46.00;33.67;;;;;;;;5092560;27;45330;-80
2021/09/25 07:00:35;;;;;;;;;41.00;33.25;;;;;;;;5083916;28;45335;-81
2021/09/25 07:03:00;;;;;;;;;44.25;35.75;;;;;;;;5083948;28;45964;-79
2021/09/25 07:05:26;;;;;;;;;46.00;37.00;;;;;;;;5076707;28;45347;-79
2021/09/25 07:07:51;;;;;;;;;42.25;34.50;;;;;;;;5085783;27;45489;-79
2021/09/25 07:10:17;;;;;;;;;44.75;33.25;;;;;;;;5086422;27;45589;-79
2021/09/25 07:12:42;;;;;;;;;44.25;35.00;;;;;;;;5083896;28;46405;-79
2021/09/25 07:15:08;;;;;;;;;46.00;35.25;;;;;;;;5081914;27;45477;-82
2021/09/25 07:17:34;;;;;;;;;38.00;32.50;;;;;;;;5066065;27;45295;-80
2021/09/25 07:19:59;;;;;;;;;48.33;36.33;;;;;;;;5087901;27;45506;-79
2021/09/25 07:22:24;;;;;;;;;47.00;36.33;;;;;;;;5087373;28;45219;-78
2021/09/25 07:24:54;;;;;;;;;42.00;33.00;;;;;;;;5085743;28;45278;-80
2021/09/25 07:27:20;;;;;;;;;45.25;35.00;;;;;;;;5084741;28;45350;-80
2021/09/25 07:29:45;;;;;;;;;47.25;38.00;;;;;;;;5083753;28;45276;-80
2021/09/25 07:32:10;;;;;;;;;47.33;34.00;;;;;;;;5062652;28;47070;-79
2021/09/25 07:34:35;;;;;;;;;43.75;36.00;;;;;;;;5085223;28;45394;-80
2021/09/25 07:37:01;;;;;;;;;46.33;36.00;;;;;;;;5084721;28;45270;-79
2021/09/25 07:39:26;;;;;;;;;46.00;37.00;;;;;;;;5085466;28;45685;-80
2021/09/25 07:41:51;;;;;;;;;40.33;34.00;;;;;;;;5084599;28;45455;-80
2021/09/25 07:44:16;;;;;;;;;43.00;33.00;;;;;;;;5079637;28;45329;-80
2021/09/25 07:46:42;;;;;;;;;38.75;34.00;;;;;;;;5085658;28;45307;-80
2021/09/25 07:49:07;;;;;;;;;45.00;33.00;;;;;;;;5082293;28;45263;-82
2021/09/25 07:51:32;;;;;;;;;36.25;30.25;;;;;;;;5077605;28;46309;-79
2021/09/25 07:53:57;;;;;;;;;44.25;33.25;;;;;;;;5082615;28;45449;-81
2021/09/25 07:56:23;;;;;;;;;33.67;31.33;;;;;;;;5084635;28;45483;-80
2021/09/25 07:58:48;;;;;;;;;33.00;29.50;;;;;;;;5083395;28;45328;-80
2021/09/25 08:01:13;;;;;;;;;31.33;29.67;;;;;;;;5076094;28;45379;-81
2021/09/25 08:03:39;;;;;;;;;34.00;30.00;;;;;;;;5064410;28;45354;-79
2021/09/25 08:06:04;;;;;;;;;31.00;27.00;;;;;;;;5085643;28;45389;-79
2021/09/25 08:08:30;;;;;;;;;30.00;29.00;;;;;;;;5084923;27;45581;-79
2021/09/25 08:10:55;;;;;;;;;42.00;30.00;;;;;;;;5065901;28;46216;-80
2021/09/25 08:13:20;;;;;;;;;30.67;28.00;;;;;;;;5066985;28;45364;-79
2021/09/25 08:15:46;;;;;;;;;28.33;27.00;;;;;;;;5084894;28;45431;-80
2021/09/25 08:18:12;;;;;;;;;39.25;31.25;;;;;;;;5081843;28;45573;-79
2021/09/25 08:20:37;;;;;;;;;36.25;30.25;;;;;;;;5083997;28;45424;-79
2021/09/25 08:23:02;;;;;;;;;38.50;33.50;;;;;;;;5084359;28;45314;-80
2021/09/25 08:25:27;;;;;;;;;34.25;30.50;;;;;;;;5084390;28;45473;-79
2021/09/25 08:27:53;;;;;;;;;32.33;29.00;;;;;;;;5083384;28;45427;-80
2021/09/25 08:30:19;;;;;;;;;33.50;27.25;;;;;;;;5083539;28;45370;-80
2021/09/25 08:32:45;;;;;;;;;35.50;30.50;;;;;;;;5065354;28;45586;-79
2021/09/25 08:35:11;;;;;;;;;30.50;28.50;;;;;;;;5082663;28;45339;-80
2021/09/25 08:37:37;;;;;;;;;28.50;28.50;;;;;;;;5064677;28;45966;-79
2021/09/25 08:40:03;;;;;;;;;31.75;28.00;;;;;;;;5083753;28;46029;-81
2021/09/25 08:42:29;;;;;;;;;29.50;26.50;;;;;;;;5082754;28;45330;-80
2021/09/25 08:44:54;;;;;;;;;30.00;28.50;;;;;;;;5087729;28;45335;-80
2021/09/25 08:47:21;;;;;;;;;33.00;29.25;;;;;;;;5086024;28;45327;-79
2021/09/25 08:49:46;;;;;;;;;28.00;26.50;;;;;;;;5066129;28;46918;-79
2021/09/25 08:52:12;;;;;;;;;29.50;28.50;;;;;;;;5084368;28;45496;-79
2021/09/25 08:54:37;;;;;;;;;30.75;28.25;;;;;;;;5086353;28;45505;-82
2021/09/25 08:57:03;;;;;;;;;30.25;29.00;;;;;;;;5075106;28;45428;-79
2021/09/25 08:59:28;;;;;;;;;34.00;27.75;;;;;;;;5077286;28;46199;-79
2021/09/25 09:01:54;;;;;;;;;29.25;27.25;;;;;;;;5081166;28;45403;-80
2021/09/25 09:04:19;;;;;;;;;32.00;27.67;;;;;;;;5081486;28;45388;-82
2021/09/25 09:06:46;;;;;;;;;32.25;29.00;;;;;;;;5082010;28;45664;-81
2021/09/25 09:09:12;;;;;;;;;26.50;24.50;;;;;;;;5081349;28;45220;-82
2021/09/25 09:11:41;;;;;;;;;25.67;24.67;;;;;;;;5083335;28;45240;-81
2021/09/25 09:14:07;;;;;;;;;30.25;26.00;;;;;;;;5064317;28;45526;-81
2021/09/25 09:16:32;;;;;;;;;27.25;25.50;;;;;;;;5083887;28;45454;-81
2021/09/25 09:18:58;;;;;;;;;25.33;24.67;;;;;;;;5085869;28;45461;-82
2021/09/25 09:21:25;;;;;;;;;40.50;31.50;;;;;;;;5085344;28;45672;-81
2021/09/25 09:23:55;;;;;;;;;23.75;22.50;;;;;;;;5065940;28;44898;-80
2021/09/25 09:26:28;;;;;;;;;26.75;23.00;;;;;;;;5085933;28;45487;-81
2021/09/25 09:28:54;;;;;;;;;21.75;20.25;;;;;;;;5084381;28;46778;-81
2021/09/25 09:31:19;;;;;;;;;21.25;18.00;;;;;;;;5082885;28;45314;-81
2021/09/25 09:33:45;;;;;;;;;26.00;24.50;;;;;;;;5083328;28;45660;-80
2021/09/25 09:36:22;;;;;;;;;27.33;22.67;;;;;;;;5083702;28;45652;-80
2021/09/25 09:38:53;;;;;;;;;23.00;23.00;;;;;;;;5081497;28;45599;-81
2021/09/25 09:41:19;;;;;;;;;24.00;21.75;;;;;;;;5064004;28;45713;-81
2021/09/25 09:43:45;;;;;;;;;18.75;15.50;;;;;;;;5063216;28;45674;-81
2021/09/25 09:46:10;;;;;;;;;18.50;18.50;;;;;;;;5082055;28;45410;-81
2021/09/25 09:48:35;;;;;;;;;22.00;18.75;;;;;;;;5081572;28;45477;-81
2021/09/25 09:51:00;;;;;;;;;21.00;20.25;;;;;;;;5080055;28;45716;-81
2021/09/25 09:53:28;;;;;;;;;21.00;21.00;;;;;;;;5060639;28;45451;-81
2021/09/25 09:56:14;;;;;;;;;22.25;21.50;;;;;;;;5079852;28;45454;-81
2021/09/25 09:58:39;;;;;;;;;22.75;21.75;;;;;;;;5062360;28;48052;-81
2021/09/25 10:01:06;;;;;;;;;21.75;20.75;;;;;;;;5080436;28;45437;-81
2021/09/25 10:03:31;;;;;;;;;21.00;19.25;;;;;;;;5080058;28;45265;-80
2021/09/25 10:05:56;;;;;;;;;18.50;17.25;;;;;;;;5061325;28;45850;-80
2021/09/25 10:08:21;;;;;;;;;18.50;17.00;;;;;;;;5079789;28;46724;-80
2021/09/25 10:10:47;;;;;;;;;17.00;17.00;;;;;;;;5085150;28;45336;-79
2021/09/25 10:13:13;;;;;;;;;20.25;17.50;;;;;;;;5089917;28;45238;-81
2021/09/25 10:15:39;;;;;;;;;18.50;18.00;;;;;;;;5080630;28;45312;-80
2021/09/25 10:18:04;;;;;;;;;17.00;17.00;;;;;;;;5080036;28;45393;-81
2021/09/25 10:20:29;;;;;;;;;22.00;20.00;;;;;;;;5079663;28;45277;-80
2021/09/25 10:22:55;;;;;;;;;19.25;18.25;;;;;;;;5079901;28;45365;-80
2021/09/25 10:25:20;;;;;;;;;22.00;22.00;;;;;;;;5079805;28;45305;-81
2021/09/25 10:27:45;;;;;;;;;22.50;20.50;;;;;;;;5061509;28;46398;-82
2021/09/25 10:30:11;;;;;;;;;19.75;16.25;;;;;;;;5080930;28;45449;-81
2021/09/25 10:32:44;;;;;;;;;18.00;17.25;;;;;;;;5084816;28;45462;-81
2021/09/25 10:35:23;;;;;;;;;22.25;20.00;;;;;;;;5083387;28;45264;-81
2021/09/25 10:37:56;;;;;;;;;23.50;20.50;;;;;;;;5062195;28;47396;-81
2021/09/25 10:40:23;;;;;;;;;23.50;19.00;;;;;;;;5061732;28;45813;-81
2021/09/25 10:42:56;;;;;;;;;20.75;20.00;;;;;;;;5065762;28;45497;-80
2021/09/25 10:45:35;;;;;;;;;19.50;16.50;;;;;;;;5061850;28;45608;-81
2021/09/25 10:48:17;;;;;;;;;22.25;19.75;;;;;;;;5066715;28;47734;-82
2021/09/25 10:50:56;;;;;;;;;21.00;18.50;;;;;;;;5084239;28;45553;-83
2021/09/25 10:53:26;;;;;;;;;18.50;17.00;;;;;;;;5062114;28;45451;-82
2021/09/25 10:55:52;;;;;;;;;17.50;16.00;;;;;;;;5084279;28;45535;-82
2021/09/25 10:58:20;;;;;;;;;21.50;18.75;;;;;;;;5068229;28;47628;-82
2021/09/25 11:00:59;;;;;;;;;20.00;18.75;;;;;;;;5065092;28;45643;-82
2021/09/25 11:03:43;;;;;;;;;17.75;16.00;;;;;;;;5083699;28;45466;-83
2021/09/25 11:06:21;;;;;;;;;19.50;19.00;;;;;;;;5065381;28;45296;-83
2021/09/25 11:08:49;;;;;;;;;16.00;16.00;;;;;;;;5083606;28;46041;-82
2021/09/25 11:11:15;;;;;;;;;15.50;14.75;;;;;;;;5083373;28;45231;-82
2021/09/25 11:13:59;;;;;;;;;18.25;15.50;;;;;;;;5084316;28;45260;-82
2021/09/25 11:16:43;;;;;;;;;19.50;18.25;;;;;;;;5080659;28;45374;-82
2021/09/25 11:19:11;;;;;;;;;16.50;15.00;;;;;;;;5084332;28;46376;-82
2021/09/25 11:21:36;;;;;;;;;18.00;14.00;;;;;;;;5085335;28;45224;-82
2021/09/25 11:24:02;;;;;;;;;16.50;14.75;;;;;;;;5087332;28;45474;-82
2021/09/25 11:26:27;;;;;;;;;15.00;13.50;;;;;;;;5066675;28;45232;-82
2021/09/25 11:28:52;;;;;;;;;18.50;16.25;;;;;;;;5066626;28;46259;-82
2021/09/25 11:31:17;;;;;;;;;15.50;15.00;;;;;;;;5067293;28;46184;-82
2021/09/25 11:33:43;;;;;;;;;14.50;12.00;;;;;;;;5065745;28;45448;-82
2021/09/25 11:36:10;;;;;;;;;16.00;14.25;;;;;;;;5084376;28;45189;-82
2021/09/25 11:38:43;;;;;;;;;12.75;12.75;;;;;;;;5084757;28;46686;-82
2021/09/25 11:41:13;;;;;;;;;18.25;17.00;;;;;;;;5082759;28;45265;-82
2021/09/25 11:43:38;;;;;;;;;17.50;15.50;;;;;;;;5086288;28;45686;-82
2021/09/25 11:46:05;;;;;;;;;20.00;16.50;;;;;;;;5083681;28;45461;-82
2021/09/25 11:48:32;;;;;;;;;20.75;18.50;;;;;;;;5081974;28;45306;-82
2021/09/25 11:50:58;;;;;;;;;21.00;20.25;;;;;;;;5081997;28;45244;-82
2021/09/25 11:53:24;;;;;;;;;17.50;15.75;;;;;;;;5081048;28;45251;-82
2021/09/25 11:55:50;;;;;;;;;21.50;17.00;;;;;;;;5082610;28;45943;-82
2021/09/25 11:58:20;;;;;;;;;16.00;16.00;;;;;;;;5064585;28;47118;-82
2021/09/25 12:00:49;;;;;;;;;14.00;13.25;;;;;;;;5082673;28;45313;-82
2021/09/25 12:03:14;;;;;;;;;13.50;13.50;;;;;;;;5063224;28;45855;-83
2021/09/25 12:05:41;;;;;;;;;18.00;17.00;;;;;;;;5064344;28;45271;-85
2021/09/25 12:08:13;;;;;;;;;14.50;14.00;;;;;;;;5078619;28;46085;-84
2021/09/25 12:10:40;;;;;;;;;21.25;20.00;;;;;;;;5077881;28;45512;-83
2021/09/25 12:13:13;;;;;;;;;16.00;16.00;;;;;;;;5066794;28;45417;-83
2021/09/25 12:15:40;;;;;;;;;14.50;13.00;;;;;;;;5063847;28;45571;-83
2021/09/25 12:18:11;;;;;;;;;12.75;12.75;;;;;;;;5061554;28;47163;-83
2021/09/25 12:20:36;;;;;;;;;15.25;14.00;;;;;;;;5082127;28;45406;-84
2021/09/25 12:23:04;;;;;;;;;16.50;15.00;;;;;;;;5063840;28;45344;-83
2021/09/25 12:25:29;;;;;;;;;16.75;14.75;;;;;;;;5076411;28;45462;-83
2021/09/25 12:27:55;;;;;;;;;16.75;14.00;;;;;;;;5063624;28;46443;-83
2021/09/25 12:30:21;;;;;;;;;17.75;15.25;;;;;;;;5063427;28;45533;-83
2021/09/25 12:33:08;;;;;;;;;16.50;13.75;;;;;;;;5081870;28;45481;-82
2021/09/25 12:35:33;;;;;;;;;15.75;14.50;;;;;;;;5064623;28;45475;-81
2021/09/25 12:37:58;;;;;;;;;17.00;17.00;;;;;;;;5064340;28;47053;-82
2021/09/25 12:40:23;;;;;;;;;16.33;15.00;;;;;;;;5065254;28;45477;-82
2021/09/25 12:42:50;;;;;;;;;15.00;13.75;;;;;;;;5068056;28;45450;-82
2021/09/25 12:45:15;;;;;;;;;15.00;14.25;;;;;;;;5085822;28;45455;-82
2021/09/25 12:47:41;;;;;;;;;16.75;15.25;;;;;;;;5085538;28;45356;-82
2021/09/25 12:50:13;;;;;;;;;15.75;15.75;;;;;;;;5086255;28;45359;-82
2021/09/25 12:52:39;;;;;;;;;15.00;13.50;;;;;;;;5085043;28;45533;-82
2021/09/25 12:55:07;;;;;;;;;15.75;14.00;;;;;;;;5082822;28;45376;-82
2021/09/25 12:57:32;;;;;;;;;16.00;13.00;;;;;;;;5083245;28;45403;-82
2021/09/25 12:59:59;;;;;;;;;13.67;13.67;;;;;;;;5083906;28;45379;-82
2021/09/25 13:02:24;;;;;;;;;15.50;13.50;;;;;;;;5083597;28;45264;-82
2021/09/25 13:04:50;;;;;;;;;13.00;13.00;;;;;;;;5080536;28;45455;-86
2021/09/25 13:07:50;;;;;;;;;17.00;15.33;;;;;;;;5080683;28;46514;-82
2021/09/25 13:10:17;;;;;;;;;13.00;13.00;;;;;;;;4977791;28;45469;-82
2021/09/25 13:12:43;;;;;;;;;17.00;14.25;;;;;;;;5057562;28;45486;-81
2021/09/25 13:15:10;;;;;;;;;11.75;11.75;;;;;;;;5097756;28;44772;-81
2021/09/25 13:17:37;;;;;;;;;18.75;15.00;;;;;;;;5098321;28;45614;-80
2021/09/25 13:20:06;;;;;;;;;19.25;16.25;;;;;;;;5078725;28;45525;-82
2021/09/25 13:22:32;;;;;;;;;15.75;15.25;;;;;;;;5061857;28;45189;-81
2021/09/25 13:24:59;;;;;;;;;15.25;14.50;;;;;;;;5084324;28;45227;-81
2021/09/25 13:27:24;;;;;;;;;15.00;13.50;;;;;;;;5087857;28;45351;-80
2021/09/25 13:29:52;;;;;;;;;12.75;12.75;;;;;;;;5086901;28;45363;-79
2021/09/25 13:32:17;;;;;;;;;13.75;12.75;;;;;;;;5067725;28;45493;-80
2021/09/25 13:34:43;;;;;;;;;13.25;13.00;;;;;;;;5088742;28;45506;-81
2021/09/25 13:37:08;;;;;;;;;13.75;13.75;;;;;;;;5066486;28;48153;-82
2021/09/25 13:39:34;;;;;;;;;13.25;13.25;;;;;;;;5084031;28;45392;-83
2021/09/25 13:42:00;;;;;;;;;17.50;15.25;;;;;;;;5084632;28;45505;-83
2021/09/25 13:44:33;;;;;;;;;15.00;15.00;;;;;;;;5070299;28;45524;-83
2021/09/25 13:46:58;;;;;;;;;10.00;10.00;;;;;;;;5085647;28;45425;-83
2021/09/25 13:49:24;;;;;;;;;14.33;13.67;;;;;;;;5084083;28;45329;-83
2021/09/25 13:51:53;;;;;;;;;12.00;11.50;;;;;;;;5064799;28;45351;-80
2021/09/25 13:54:19;;;;;;;;;11.75;11.00;;;;;;;;5079743;28;45503;-81
2021/09/25 13:56:44;;;;;;;;;14.75;13.75;;;;;;;;5071061;28;47077;-79
2021/09/25 13:59:09;;;;;;;;;14.00;13.75;;;;;;;;5089325;28;45473;-80
2021/09/25 14:01:35;;;;;;;;;15.50;13.25;;;;;;;;5070225;28;44851;-81
2021/09/25 14:04:00;;;;;;;;;13.25;13.00;;;;;;;;5089734;28;45077;-79
2021/09/25 14:06:26;;;;;;;;;12.25;12.25;;;;;;;;5087689;28;45544;-79
2021/09/25 14:08:51;;;;;;;;;12.25;11.00;;;;;;;;5084712;28;45431;-79
2021/09/25 14:11:16;;;;;;;;;14.75;14.00;;;;;;;;5069996;28;45440;-80